sensor_id;sensor_type;location;lat;lon;timestamp;pressure;altitude;pressure_sealevel;temperature;humidity
18527;BME280;9393;42.158;24.748;2023-07-28T00:00:18;99499.78;;;23.01;40.43
18527;BME280;9393;42.158;24.748;2023-07-28T00:03:22;99500.53;;;22.72;41.15
18527;BME280;9393;42.158;24.748;2023-07-28T00:06:25;99501.44;;;22.59;41.46
18527;BME280;9393;42.158;24.748;2023-07-28T00:09:31;99506.50;;;22.42;42.12
18527;BME280;9393;42.158;24.748;2023-07-28T00:12:35;99505.88;;;22.65;41.70
18527;BME280;9393;42.158;24.748;2023-07-28T00:15:38;99500.63;;;22.58;41.62
18527;BME280;9393;42.158;24.748;2023-07-28T00:18:42;99507.38;;;22.36;42.28
18527;BME280;9393;42.158;24.748;2023-07-28T00:21:47;99513.00;;;22.46;42.26
18527;BME280;9393;42.158;24.748;2023-07-28T00:24:52;99514.66;;;22.47;41.63
18527;BME280;9393;42.158;24.748;2023-07-28T00:27:56;99513.97;;;22.52;41.65
18527;BME280;9393;42.158;24.748;2023-07-28T00:31:00;99501.44;;;22.59;41.91
18527;BME280;9393;42.158;24.748;2023-07-28T00:34:04;99499.50;;;22.48;41.82
18527;BME280;9393;42.158;24.748;2023-07-28T00:37:08;99500.41;;;22.60;41.56
18527;BME280;9393;42.158;24.748;2023-07-28T00:40:14;99499.44;;;22.54;41.79
18527;BME280;9393;42.158;24.748;2023-07-28T00:43:18;99500.78;;;22.63;41.40
18527;BME280;9393;42.158;24.748;2023-07-28T00:46:22;99498.53;;;22.85;41.29
18527;BME280;9393;42.158;24.748;2023-07-28T00:49:26;99502.88;;;22.98;40.96
18527;BME280;9393;42.158;24.748;2023-07-28T00:52:29;99504.97;;;22.78;41.25
18527;BME280;9393;42.158;24.748;2023-07-28T00:55:35;99504.34;;;22.76;41.27
18527;BME280;9393;42.158;24.748;2023-07-28T00:58:39;99504.00;;;22.90;40.97
18527;BME280;9393;42.158;24.748;2023-07-28T01:01:43;99503.34;;;22.95;40.67
18527;BME280;9393;42.158;24.748;2023-07-28T01:04:47;99504.00;;;22.90;40.94
18527;BME280;9393;42.158;24.748;2023-07-28T01:07:56;99500.75;;;22.88;40.68
18527;BME280;9393;42.158;24.748;2023-07-28T01:11:05;99500.78;;;22.63;41.05
18527;BME280;9393;42.158;24.748;2023-07-28T01:14:09;99496.63;;;22.49;41.66
18527;BME280;9393;42.158;24.748;2023-07-28T01:17:13;99501.50;;;22.52;41.72
18527;BME280;9393;42.158;24.748;2023-07-28T01:20:17;99496.69;;;22.43;41.91
18527;BME280;9393;42.158;24.748;2023-07-28T01:23:37;99497.53;;;22.61;41.64
18527;BME280;9393;42.158;24.748;2023-07-28T01:26:44;99496.97;;;22.35;41.93
18527;BME280;9393;42.158;24.748;2023-07-28T01:29:48;99502.44;;;22.40;42.01
18527;BME280;9393;42.158;24.748;2023-07-28T01:32:54;99502.72;;;22.32;41.66
18527;BME280;9393;42.158;24.748;2023-07-28T01:35:58;99508.41;;;22.35;41.81
18527;BME280;9393;42.158;24.748;2023-07-28T01:39:03;99510.28;;;22.53;41.72
18527;BME280;9393;42.158;24.748;2023-07-28T01:42:08;99506.53;;;22.17;42.26
18527;BME280;9393;42.158;24.748;2023-07-28T01:45:12;99505.81;;;22.29;41.77
18527;BME280;9393;42.158;24.748;2023-07-28T01:48:16;99500.38;;;22.42;41.54
18527;BME280;9393;42.158;24.748;2023-07-28T01:51:19;99508.84;;;22.07;41.94
18527;BME280;9393;42.158;24.748;2023-07-28T01:54:23;99509.94;;;22.25;41.66
18527;BME280;9393;42.158;24.748;2023-07-28T01:57:32;99508.97;;;22.44;41.09
18527;BME280;9393;42.158;24.748;2023-07-28T02:00:36;99501.56;;;22.46;41.06
18527;BME280;9393;42.158;24.748;2023-07-28T02:03:40;99512.88;;;22.59;40.57
18527;BME280;9393;42.158;24.748;2023-07-28T02:06:43;99512.38;;;22.26;41.14
18527;BME280;9393;42.158;24.748;2023-07-28T02:09:47;99518.19;;;22.59;40.81
18527;BME280;9393;42.158;24.748;2023-07-28T02:12:52;99514.50;;;22.60;40.62
18527;BME280;9393;42.158;24.748;2023-07-28T02:15:56;99524.91;;;22.62;40.73
18527;BME280;9393;42.158;24.748;2023-07-28T02:19:00;99530.53;;;22.54;41.01
18527;BME280;9393;42.158;24.748;2023-07-28T02:22:04;99522.13;;;22.32;41.59
18527;BME280;9393;42.158;24.748;2023-07-28T02:25:10;99527.81;;;22.36;41.51
18527;BME280;9393;42.158;24.748;2023-07-28T02:28:15;99528.81;;;22.59;41.40
18527;BME280;9393;42.158;24.748;2023-07-28T02:31:19;99530.28;;;22.55;41.31
18527;BME280;9393;42.158;24.748;2023-07-28T02:34:23;99527.88;;;22.54;41.59
18527;BME280;9393;42.158;24.748;2023-07-28T02:37:26;99518.78;;;22.68;41.44
18527;BME280;9393;42.158;24.748;2023-07-28T02:40:32;99521.88;;;22.83;41.35
18527;BME280;9393;42.158;24.748;2023-07-28T02:43:37;99530.09;;;22.57;41.68
18527;BME280;9393;42.158;24.748;2023-07-28T02:46:40;99523.50;;;22.84;41.29
18527;BME280;9393;42.158;24.748;2023-07-28T02:49:44;99528.38;;;22.44;41.97
18527;BME280;9393;42.158;24.748;2023-07-28T02:52:48;99528.91;;;22.53;41.93
18527;BME280;9393;42.158;24.748;2023-07-28T02:55:52;99526.13;;;22.41;42.02
18527;BME280;9393;42.158;24.748;2023-07-28T02:58:57;99531.56;;;22.28;42.56
18527;BME280;9393;42.158;24.748;2023-07-28T03:02:01;99534.00;;;22.30;42.60
18527;BME280;9393;42.158;24.748;2023-07-28T03:05:05;99530.41;;;22.17;42.74
18527;BME280;9393;42.158;24.748;2023-07-28T03:08:48;99526.28;;;21.97;43.24
18527;BME280;9393;42.158;24.748;2023-07-28T03:12:08;99531.03;;;21.95;42.98
18527;BME280;9393;42.158;24.748;2023-07-28T03:15:14;99533.03;;;22.24;42.14
18527;BME280;9393;42.158;24.748;2023-07-28T03:18:18;99543.00;;;22.29;42.23
18527;BME280;9393;42.158;24.748;2023-07-28T03:21:22;99536.16;;;22.14;42.32
18527;BME280;9393;42.158;24.748;2023-07-28T03:24:26;99542.47;;;22.20;42.15
18527;BME280;9393;42.158;24.748;2023-07-28T03:27:30;99548.75;;;22.26;42.06
18527;BME280;9393;42.158;24.748;2023-07-28T03:30:36;99544.59;;;22.36;41.93
18527;BME280;9393;42.158;24.748;2023-07-28T03:33:40;99553.47;;;22.48;41.62
18527;BME280;9393;42.158;24.748;2023-07-28T03:36:44;99556.81;;;22.62;41.71
18527;BME280;9393;42.158;24.748;2023-07-28T03:39:49;99563.69;;;22.94;41.17
18527;BME280;9393;42.158;24.748;2023-07-28T03:42:57;99565.91;;;23.15;40.57
18527;BME280;9393;42.158;24.748;2023-07-28T03:46:02;99573.53;;;23.30;40.50
18527;BME280;9393;42.158;24.748;2023-07-28T03:49:06;99577.94;;;23.36;40.63
18527;BME280;9393;42.158;24.748;2023-07-28T03:52:10;99580.56;;;23.43;40.25
18527;BME280;9393;42.158;24.748;2023-07-28T03:55:14;99574.72;;;23.94;38.88
18527;BME280;9393;42.158;24.748;2023-07-28T03:58:18;99584.44;;;23.58;39.85
18527;BME280;9393;42.158;24.748;2023-07-28T04:01:23;99583.84;;;23.86;39.62
18527;BME280;9393;42.158;24.748;2023-07-28T04:04:27;99589.41;;;23.85;39.43
18527;BME280;9393;42.158;24.748;2023-07-28T04:07:30;99589.19;;;23.86;39.44
18527;BME280;9393;42.158;24.748;2023-07-28T04:10:34;99591.09;;;24.50;38.43
18527;BME280;9393;42.158;24.748;2023-07-28T04:13:38;99589.69;;;24.48;38.91
18527;BME280;9393;42.158;24.748;2023-07-28T04:16:43;99598.91;;;24.87;37.72
18527;BME280;9393;42.158;24.748;2023-07-28T04:19:47;99603.19;;;24.64;38.63
18527;BME280;9393;42.158;24.748;2023-07-28T04:22:51;99595.38;;;24.40;38.54
18527;BME280;9393;42.158;24.748;2023-07-28T04:25:55;99600.00;;;24.33;38.79
18527;BME280;9393;42.158;24.748;2023-07-28T04:28:59;99597.25;;;24.62;38.53
18527;BME280;9393;42.158;24.748;2023-07-28T04:32:06;99600.41;;;24.83;37.82
18527;BME280;9393;42.158;24.748;2023-07-28T04:35:10;99599.47;;;24.77;38.19
18527;BME280;9393;42.158;24.748;2023-07-28T04:38:33;99597.84;;;24.76;38.74
18527;BME280;9393;42.158;24.748;2023-07-28T04:41:37;99606.31;;;25.08;37.42
18527;BME280;9393;42.158;24.748;2023-07-28T04:44:41;99602.81;;;25.19;37.45
18527;BME280;9393;42.158;24.748;2023-07-28T04:47:48;99598.31;;;24.96;37.49
18527;BME280;9393;42.158;24.748;2023-07-28T04:50:52;99605.13;;;24.69;37.97
18527;BME280;9393;42.158;24.748;2023-07-28T04:54:16;99606.81;;;25.45;37.00
18527;BME280;9393;42.158;24.748;2023-07-28T04:57:19;99609.81;;;25.48;37.23
18527;BME280;9393;42.158;24.748;2023-07-28T05:00:23;99612.84;;;25.63;36.36
18527;BME280;9393;42.158;24.748;2023-07-28T05:03:29;99612.81;;;25.75;36.71
18527;BME280;9393;42.158;24.748;2023-07-28T05:06:42;99615.66;;;25.85;36.72
18527;BME280;9393;42.158;24.748;2023-07-28T05:09:46;99623.09;;;25.83;36.57
18527;BME280;9393;42.158;24.748;2023-07-28T05:12:51;99624.81;;;26.18;36.25
18527;BME280;9393;42.158;24.748;2023-07-28T05:15:55;99625.75;;;26.40;36.13
18527;BME280;9393;42.158;24.748;2023-07-28T05:19:20;99633.94;;;26.50;35.25
18527;BME280;9393;42.158;24.748;2023-07-28T05:22:27;99627.44;;;26.46;35.75
18527;BME280;9393;42.158;24.748;2023-07-28T05:25:31;99631.91;;;26.57;35.89
18527;BME280;9393;42.158;24.748;2023-07-28T05:28:35;99634.16;;;26.32;36.08
18527;BME280;9393;42.158;24.748;2023-07-28T05:31:39;99630.69;;;26.98;35.14
18527;BME280;9393;42.158;24.748;2023-07-28T05:34:55;99632.97;;;26.89;35.02
18527;BME280;9393;42.158;24.748;2023-07-28T05:37:59;99630.16;;;27.18;34.19
18527;BME280;9393;42.158;24.748;2023-07-28T05:41:04;99638.63;;;27.31;33.89
18527;BME280;9393;42.158;24.748;2023-07-28T05:44:08;99635.59;;;27.23;34.14
18527;BME280;9393;42.158;24.748;2023-07-28T05:47:12;99628.38;;;27.06;33.68
18527;BME280;9393;42.158;24.748;2023-07-28T05:50:17;99628.88;;;27.20;33.99
18527;BME280;9393;42.158;24.748;2023-07-28T05:53:21;99632.53;;;27.79;32.93
18527;BME280;9393;42.158;24.748;2023-07-28T05:56:30;99635.44;;;27.73;33.29
18527;BME280;9393;42.158;24.748;2023-07-28T05:59:34;99637.66;;;27.81;33.03
18527;BME280;9393;42.158;24.748;2023-07-28T06:02:38;99633.75;;;28.15;32.61
18527;BME280;9393;42.158;24.748;2023-07-28T06:05:47;99631.59;;;28.12;32.55
18527;BME280;9393;42.158;24.748;2023-07-28T06:08:52;99641.00;;;28.15;32.56
18527;BME280;9393;42.158;24.748;2023-07-28T06:11:56;99639.31;;;28.35;31.85
18527;BME280;9393;42.158;24.748;2023-07-28T06:15:02;99638.56;;;28.40;32.71
18527;BME280;9393;42.158;24.748;2023-07-28T06:18:06;99629.75;;;28.18;32.72
18527;BME280;9393;42.158;24.748;2023-07-28T06:21:11;99642.34;;;28.76;31.56
18527;BME280;9393;42.158;24.748;2023-07-28T06:24:15;99641.06;;;28.83;31.44
18527;BME280;9393;42.158;24.748;2023-07-28T06:27:19;99633.66;;;28.64;32.38
18527;BME280;9393;42.158;24.748;2023-07-28T06:30:23;99632.84;;;28.63;31.58
18527;BME280;9393;42.158;24.748;2023-07-28T06:33:28;99627.31;;;28.43;31.83
18527;BME280;9393;42.158;24.748;2023-07-28T06:36:34;99619.28;;;28.75;31.02
18527;BME280;9393;42.158;24.748;2023-07-28T06:39:38;99622.47;;;28.40;31.85
18527;BME280;9393;42.158;24.748;2023-07-28T06:42:43;99621.50;;;28.56;31.63
18527;BME280;9393;42.158;24.748;2023-07-28T06:45:50;99614.50;;;29.29;31.23
18527;BME280;9393;42.158;24.748;2023-07-28T06:48:55;99605.19;;;28.99;31.13
18527;BME280;9393;42.158;24.748;2023-07-28T06:52:00;99607.53;;;29.33;30.81
18527;BME280;9393;42.158;24.748;2023-07-28T06:55:05;99600.84;;;29.40;30.85
18527;BME280;9393;42.158;24.748;2023-07-28T06:58:10;99603.09;;;29.69;30.09
18527;BME280;9393;42.158;24.748;2023-07-28T07:01:14;99607.22;;;30.06;29.62
18527;BME280;9393;42.158;24.748;2023-07-28T07:04:19;99611.78;;;29.91;28.93
18527;BME280;9393;42.158;24.748;2023-07-28T07:07:25;99609.38;;;29.99;28.60
18527;BME280;9393;42.158;24.748;2023-07-28T07:10:32;99605.06;;;30.14;28.60
18527;BME280;9393;42.158;24.748;2023-07-28T07:13:35;99598.88;;;29.98;28.69
18527;BME280;9393;42.158;24.748;2023-07-28T07:16:39;99597.53;;;30.11;28.53
18527;BME280;9393;42.158;24.748;2023-07-28T07:19:43;99602.94;;;30.26;27.98
18527;BME280;9393;42.158;24.748;2023-07-28T07:22:49;99603.91;;;29.74;27.97
18527;BME280;9393;42.158;24.748;2023-07-28T07:25:53;99598.66;;;30.30;28.38
18527;BME280;9393;42.158;24.748;2023-07-28T07:28:57;99599.47;;;30.61;27.91
18527;BME280;9393;42.158;24.748;2023-07-28T07:32:01;99594.38;;;30.54;27.69
18527;BME280;9393;42.158;24.748;2023-07-28T07:35:06;99605.59;;;30.86;27.82
18527;BME280;9393;42.158;24.748;2023-07-28T07:38:12;99597.34;;;30.47;27.49
18527;BME280;9393;42.158;24.748;2023-07-28T07:41:16;99604.03;;;30.60;27.82
18527;BME280;9393;42.158;24.748;2023-07-28T07:44:22;99594.03;;;30.76;26.27
18527;BME280;9393;42.158;24.748;2023-07-28T07:47:26;99596.72;;;30.91;26.62
18527;BME280;9393;42.158;24.748;2023-07-28T07:50:29;99586.75;;;31.01;26.30
18527;BME280;9393;42.158;24.748;2023-07-28T07:53:35;99589.41;;;31.17;25.62
18527;BME280;9393;42.158;24.748;2023-07-28T07:56:40;99584.16;;;30.51;25.72
18527;BME280;9393;42.158;24.748;2023-07-28T07:59:44;99585.44;;;30.99;26.02
18527;BME280;9393;42.158;24.748;2023-07-28T08:02:47;99589.31;;;31.37;25.65
18527;BME280;9393;42.158;24.748;2023-07-28T08:05:51;99574.69;;;31.48;25.55
18527;BME280;9393;42.158;24.748;2023-07-28T08:08:57;99579.59;;;31.41;25.83
18527;BME280;9393;42.158;24.748;2023-07-28T08:12:02;99575.38;;;31.15;25.66
18527;BME280;9393;42.158;24.748;2023-07-28T08:15:06;99569.78;;;31.65;25.36
18527;BME280;9393;42.158;24.748;2023-07-28T08:18:11;99566.00;;;31.66;25.52
18527;BME280;9393;42.158;24.748;2023-07-28T08:21:16;99554.94;;;32.12;25.23
18527;BME280;9393;42.158;24.748;2023-07-28T08:24:21;99559.47;;;31.23;25.55
18527;BME280;9393;42.158;24.748;2023-07-28T08:27:25;99559.03;;;31.60;25.21
18527;BME280;9393;42.158;24.748;2023-07-28T08:30:29;99558.91;;;31.80;24.90
18527;BME280;9393;42.158;24.748;2023-07-28T08:33:34;99561.91;;;32.46;24.38
18527;BME280;9393;42.158;24.748;2023-07-28T08:36:38;99559.38;;;32.60;24.19
18527;BME280;9393;42.158;24.748;2023-07-28T08:39:44;99551.53;;;32.30;24.37
18527;BME280;9393;42.158;24.748;2023-07-28T08:42:48;99557.41;;;32.37;23.83
18527;BME280;9393;42.158;24.748;2023-07-28T08:45:53;99548.97;;;32.43;23.08
18527;BME280;9393;42.158;24.748;2023-07-28T08:48:57;99545.97;;;32.79;23.34
18527;BME280;9393;42.158;24.748;2023-07-28T08:52:02;99545.78;;;33.18;23.21
18527;BME280;9393;42.158;24.748;2023-07-28T08:55:08;99534.47;;;32.92;22.86
18527;BME280;9393;42.158;24.748;2023-07-28T08:58:18;99538.31;;;33.10;22.11
18527;BME280;9393;42.158;24.748;2023-07-28T09:01:23;99532.63;;;32.87;22.82
18527;BME280;9393;42.158;24.748;2023-07-28T09:04:27;99541.28;;;32.84;21.67
18527;BME280;9393;42.158;24.748;2023-07-28T09:07:34;99529.84;;;32.69;22.22
18527;BME280;9393;42.158;24.748;2023-07-28T09:10:44;99525.47;;;32.96;21.31
18527;BME280;9393;42.158;24.748;2023-07-28T09:13:49;99524.63;;;33.01;21.52
18527;BME280;9393;42.158;24.748;2023-07-28T09:16:55;99522.63;;;33.12;21.88
18527;BME280;9393;42.158;24.748;2023-07-28T09:19:58;99519.59;;;33.37;21.83
18527;BME280;9393;42.158;24.748;2023-07-28T09:23:05;99514.16;;;33.18;22.03
18527;BME280;9393;42.158;24.748;2023-07-28T09:26:11;99512.50;;;33.41;21.52
18527;BME280;9393;42.158;24.748;2023-07-28T09:29:17;99505.06;;;33.09;22.34
18527;BME280;9393;42.158;24.748;2023-07-28T09:32:32;99505.13;;;33.65;21.63
18527;BME280;9393;42.158;24.748;2023-07-28T09:35:47;99492.91;;;33.49;21.51
18527;BME280;9393;42.158;24.748;2023-07-28T09:38:53;99490.19;;;33.86;21.42
18527;BME280;9393;42.158;24.748;2023-07-28T09:41:59;99486.16;;;33.09;21.30
18527;BME280;9393;42.158;24.748;2023-07-28T09:45:06;99484.66;;;33.40;20.89
18527;BME280;9393;42.158;24.748;2023-07-28T09:48:30;99482.97;;;33.44;20.08
18527;BME280;9393;42.158;24.748;2023-07-28T09:51:36;99479.25;;;33.22;21.31
18527;BME280;9393;42.158;24.748;2023-07-28T09:54:43;99481.75;;;33.74;20.79
18527;BME280;9393;42.158;24.748;2023-07-28T09:57:55;99473.88;;;33.91;20.44
18527;BME280;9393;42.158;24.748;2023-07-28T10:01:02;99471.25;;;33.86;21.01
18527;BME280;9393;42.158;24.748;2023-07-28T10:04:08;99458.63;;;33.82;21.29
18527;BME280;9393;42.158;24.748;2023-07-28T10:07:12;99452.66;;;32.86;21.85
18527;BME280;9393;42.158;24.748;2023-07-28T10:10:16;99454.91;;;32.79;20.85
18527;BME280;9393;42.158;24.748;2023-07-28T10:13:22;99454.41;;;33.57;20.65
18527;BME280;9393;42.158;24.748;2023-07-28T10:16:30;99437.78;;;33.08;20.24
18527;BME280;9393;42.158;24.748;2023-07-28T10:19:35;99439.34;;;33.51;20.44
18527;BME280;9393;42.158;24.748;2023-07-28T10:22:43;99447.91;;;33.58;19.81
18527;BME280;9393;42.158;24.748;2023-07-28T10:25:56;99442.34;;;33.31;19.51
18527;BME280;9393;42.158;24.748;2023-07-28T10:29:10;99430.91;;;33.20;20.19
18527;BME280;9393;42.158;24.748;2023-07-28T10:32:25;99422.44;;;34.24;19.66
18527;BME280;9393;42.158;24.748;2023-07-28T10:35:30;99416.66;;;34.30;20.34
18527;BME280;9393;42.158;24.748;2023-07-28T10:38:36;99415.03;;;33.51;20.08
18527;BME280;9393;42.158;24.748;2023-07-28T10:41:59;99410.97;;;33.99;19.95
18527;BME280;9393;42.158;24.748;2023-07-28T10:45:07;99411.53;;;33.83;19.04
18527;BME280;9393;42.158;24.748;2023-07-28T10:48:12;99404.34;;;33.92;19.71
18527;BME280;9393;42.158;24.748;2023-07-28T10:51:21;99393.47;;;33.65;19.18
18527;BME280;9393;42.158;24.748;2023-07-28T10:54:27;99388.75;;;33.51;19.87
18527;BME280;9393;42.158;24.748;2023-07-28T10:57:32;99386.38;;;33.82;19.61
18527;BME280;9393;42.158;24.748;2023-07-28T11:00:38;99387.94;;;33.70;19.62
18527;BME280;9393;42.158;24.748;2023-07-28T11:03:43;99379.53;;;34.31;19.72
18527;BME280;9393;42.158;24.748;2023-07-28T11:06:50;99373.53;;;34.34;19.64
18527;BME280;9393;42.158;24.748;2023-07-28T11:09:54;99374.03;;;33.76;19.69
18527;BME280;9393;42.158;24.748;2023-07-28T11:13:01;99368.19;;;34.01;20.06
18527;BME280;9393;42.158;24.748;2023-07-28T11:16:23;99374.47;;;34.11;19.67
18527;BME280;9393;42.158;24.748;2023-07-28T11:19:27;99374.03;;;34.36;19.95
18527;BME280;9393;42.158;24.748;2023-07-28T11:22:31;99370.31;;;34.45;19.70
18527;BME280;9393;42.158;24.748;2023-07-28T11:25:35;99367.72;;;34.27;19.95
18527;BME280;9393;42.158;24.748;2023-07-28T11:28:39;99360.91;;;34.29;20.49
18527;BME280;9393;42.158;24.748;2023-07-28T11:31:45;99357.22;;;33.93;19.79
18527;BME280;9393;42.158;24.748;2023-07-28T11:34:49;99348.00;;;33.48;20.65
18527;BME280;9393;42.158;24.748;2023-07-28T11:37:55;99347.00;;;33.76;20.37
18527;BME280;9393;42.158;24.748;2023-07-28T11:41:02;99342.19;;;33.41;20.76
18527;BME280;9393;42.158;24.748;2023-07-28T11:44:07;99344.28;;;33.76;20.31
18527;BME280;9393;42.158;24.748;2023-07-28T11:47:16;99335.28;;;33.48;20.17
18527;BME280;9393;42.158;24.748;2023-07-28T11:50:24;99319.94;;;33.76;20.18
18527;BME280;9393;42.158;24.748;2023-07-28T11:53:32;99318.16;;;33.85;19.79
18527;BME280;9393;42.158;24.748;2023-07-28T11:56:37;99323.25;;;33.87;20.23
18527;BME280;9393;42.158;24.748;2023-07-28T11:59:41;99322.09;;;34.34;19.69
18527;BME280;9393;42.158;24.748;2023-07-28T12:02:47;99316.25;;;33.40;19.99
18527;BME280;9393;42.158;24.748;2023-07-28T12:06:04;99308.31;;;33.76;19.98
18527;BME280;9393;42.158;24.748;2023-07-28T12:09:15;99309.75;;;33.87;20.11
18527;BME280;9393;42.158;24.748;2023-07-28T12:12:20;99295.19;;;34.10;20.21
18527;BME280;9393;42.158;24.748;2023-07-28T12:15:28;99291.69;;;34.50;19.58
18527;BME280;9393;42.158;24.748;2023-07-28T12:18:37;99291.06;;;34.54;19.83
18527;BME280;9393;42.158;24.748;2023-07-28T12:21:44;99288.97;;;34.64;19.64
18527;BME280;9393;42.158;24.748;2023-07-28T12:24:48;99286.59;;;34.35;19.80
18527;BME280;9393;42.158;24.748;2023-07-28T12:27:52;99278.69;;;33.98;19.75
18527;BME280;9393;42.158;24.748;2023-07-28T12:30:56;99281.00;;;34.18;19.89
18527;BME280;9393;42.158;24.748;2023-07-28T12:34:03;99274.41;;;34.60;19.19
18527;BME280;9393;42.158;24.748;2023-07-28T12:37:07;99270.91;;;34.46;18.88
18527;BME280;9393;42.158;24.748;2023-07-28T12:40:13;99273.81;;;35.08;18.93
18527;BME280;9393;42.158;24.748;2023-07-28T12:43:19;99266.81;;;35.29;19.50
18527;BME280;9393;42.158;24.748;2023-07-28T12:46:27;99260.22;;;34.99;19.75
18527;BME280;9393;42.158;24.748;2023-07-28T12:49:32;99251.13;;;34.59;19.55
18527;BME280;9393;42.158;24.748;2023-07-28T12:52:37;99247.72;;;34.67;19.17
18527;BME280;9393;42.158;24.748;2023-07-28T12:55:44;99245.94;;;34.13;19.71
18527;BME280;9393;42.158;24.748;2023-07-28T12:58:51;99240.59;;;34.22;19.83
18527;BME280;9393;42.158;24.748;2023-07-28T13:01:58;99235.97;;;34.09;19.56
18527;BME280;9393;42.158;24.748;2023-07-28T13:05:04;99239.28;;;34.55;19.92
18527;BME280;9393;42.158;24.748;2023-07-28T13:08:08;99238.44;;;34.46;19.28
18527;BME280;9393;42.158;24.748;2023-07-28T13:11:12;99232.16;;;34.37;19.76
18527;BME280;9393;42.158;24.748;2023-07-28T13:14:19;99233.75;;;34.74;19.49
18527;BME280;9393;42.158;24.748;2023-07-28T13:17:22;99230.34;;;34.90;18.98
18527;BME280;9393;42.158;24.748;2023-07-28T13:20:29;99225.97;;;35.03;19.38
18527;BME280;9393;42.158;24.748;2023-07-28T13:23:32;99223.91;;;34.42;18.97
18527;BME280;9393;42.158;24.748;2023-07-28T13:26:36;99219.09;;;34.75;19.35
18527;BME280;9393;42.158;24.748;2023-07-28T13:29:40;99218.91;;;35.16;18.62
18527;BME280;9393;42.158;24.748;2023-07-28T13:32:44;99216.28;;;35.33;18.94
18527;BME280;9393;42.158;24.748;2023-07-28T13:35:50;99215.81;;;35.09;18.63
18527;BME280;9393;42.158;24.748;2023-07-28T13:38:54;99212.00;;;35.10;18.72
18527;BME280;9393;42.158;24.748;2023-07-28T13:41:58;99203.44;;;34.94;18.74
18527;BME280;9393;42.158;24.748;2023-07-28T13:45:02;99201.72;;;34.76;19.04
18527;BME280;9393;42.158;24.748;2023-07-28T13:48:06;99195.25;;;34.27;19.52
18527;BME280;9393;42.158;24.748;2023-07-28T13:51:27;99198.78;;;34.64;19.61
18527;BME280;9393;42.158;24.748;2023-07-28T13:54:51;99194.84;;;34.92;19.50
18527;BME280;9393;42.158;24.748;2023-07-28T13:57:58;99200.94;;;34.75;18.98
18527;BME280;9393;42.158;24.748;2023-07-28T14:01:02;99195.84;;;34.60;19.30
18527;BME280;9393;42.158;24.748;2023-07-28T14:04:06;99187.38;;;34.97;18.99
18527;BME280;9393;42.158;24.748;2023-07-28T14:07:11;99187.66;;;35.18;18.61
18527;BME280;9393;42.158;24.748;2023-07-28T14:10:15;99187.78;;;34.46;18.94
18527;BME280;9393;42.158;24.748;2023-07-28T14:13:19;99183.34;;;35.17;19.18
18527;BME280;9393;42.158;24.748;2023-07-28T14:16:24;99183.94;;;35.36;19.55
18527;BME280;9393;42.158;24.748;2023-07-28T14:19:28;99178.34;;;35.11;19.72
18527;BME280;9393;42.158;24.748;2023-07-28T14:22:34;99172.91;;;35.02;19.13
18527;BME280;9393;42.158;24.748;2023-07-28T14:25:38;99169.72;;;34.78;19.12
18527;BME280;9393;42.158;24.748;2023-07-28T14:28:42;99164.72;;;34.49;18.95
18527;BME280;9393;42.158;24.748;2023-07-28T14:31:46;99164.88;;;34.97;19.17
18527;BME280;9393;42.158;24.748;2023-07-28T14:34:50;99161.81;;;35.12;19.18
18527;BME280;9393;42.158;24.748;2023-07-28T14:37:56;99153.22;;;34.96;19.30
18527;BME280;9393;42.158;24.748;2023-07-28T14:41:00;99143.44;;;34.78;19.65
18527;BME280;9393;42.158;24.748;2023-07-28T14:44:04;99136.25;;;34.82;19.70
18527;BME280;9393;42.158;24.748;2023-07-28T14:47:08;99149.75;;;34.96;19.60
18527;BME280;9393;42.158;24.748;2023-07-28T14:50:12;99138.13;;;35.26;19.29
18527;BME280;9393;42.158;24.748;2023-07-28T14:53:31;99150.16;;;35.12;19.46
18527;BME280;9393;42.158;24.748;2023-07-28T14:56:35;99139.84;;;34.69;19.66
18527;BME280;9393;42.158;24.748;2023-07-28T14:59:39;99145.09;;;34.43;20.05
18527;BME280;9393;42.158;24.748;2023-07-28T15:02:43;99145.44;;;34.95;20.15
18527;BME280;9393;42.158;24.748;2023-07-28T15:05:47;99140.16;;;34.45;20.54
18527;BME280;9393;42.158;24.748;2023-07-28T15:08:53;99131.97;;;34.59;20.22
18527;BME280;9393;42.158;24.748;2023-07-28T15:11:57;99138.78;;;34.34;20.06
18527;BME280;9393;42.158;24.748;2023-07-28T15:15:01;99133.09;;;34.58;20.07
18527;BME280;9393;42.158;24.748;2023-07-28T15:18:04;99125.09;;;34.53;19.74
18527;BME280;9393;42.158;24.748;2023-07-28T15:21:09;99132.28;;;34.80;19.43
18527;BME280;9393;42.158;24.748;2023-07-28T15:24:15;99127.47;;;35.08;20.03
18527;BME280;9393;42.158;24.748;2023-07-28T15:27:21;99119.16;;;34.95;20.49
18527;BME280;9393;42.158;24.748;2023-07-28T15:30:25;99128.28;;;35.08;19.94
18527;BME280;9393;42.158;24.748;2023-07-28T15:33:29;99124.06;;;34.93;19.85
18527;BME280;9393;42.158;24.748;2023-07-28T15:36:34;99122.47;;;34.92;20.18
18527;BME280;9393;42.158;24.748;2023-07-28T15:39:40;99115.13;;;34.62;19.82
18527;BME280;9393;42.158;24.748;2023-07-28T15:42:46;99118.25;;;34.33;19.83
18527;BME280;9393;42.158;24.748;2023-07-28T15:45:50;99119.91;;;33.85;20.39
18527;BME280;9393;42.158;24.748;2023-07-28T15:48:57;99117.13;;;34.12;20.44
18527;BME280;9393;42.158;24.748;2023-07-28T15:52:01;99117.72;;;34.09;20.43
18527;BME280;9393;42.158;24.748;2023-07-28T15:55:08;99115.44;;;34.03;20.54
18527;BME280;9393;42.158;24.748;2023-07-28T15:58:14;99120.31;;;34.14;20.45
18527;BME280;9393;42.158;24.748;2023-07-28T16:01:18;99133.38;;;34.12;20.86
18527;BME280;9393;42.158;24.748;2023-07-28T16:04:22;99124.81;;;33.69;20.82
18527;BME280;9393;42.158;24.748;2023-07-28T16:07:26;99120.13;;;33.47;20.95
18527;BME280;9393;42.158;24.748;2023-07-28T16:10:33;99123.25;;;33.68;21.04
18527;BME280;9393;42.158;24.748;2023-07-28T16:13:37;99120.13;;;33.61;21.10
18527;BME280;9393;42.158;24.748;2023-07-28T16:16:41;99127.03;;;33.53;20.83
18527;BME280;9393;42.158;24.748;2023-07-28T16:19:45;99117.22;;;33.30;21.22
18527;BME280;9393;42.158;24.748;2023-07-28T16:22:49;99125.63;;;33.56;21.12